Time;durP1;ratioP1;P1;durP2;ratioP2;P2;SDS_P1;SDS_P2;PMS_P1;PMS_P2;Temp;Humidity;BMP_temperature;BMP_pressure;BME280_temperature;BME280_humidity;BME280_pressure;Samples;Min_cycle;Max_cycle;Signal;HPM_P1;HPM_P2
2023/10/31 00:01:57;;;;;;;5.82;5.53;;;;;;;11.37;100.00;98979.03;5970167;23;20035;-79
2023/10/31 00:04:23;;;;;;;5.15;4.85;;;;;;;11.37;100.00;99018.44;6002132;23;20023;-77
2023/10/31 00:06:50;;;;;;;4.80;4.50;;;;;;;11.33;100.00;98995.19;5949624;23;20027;-78
2023/10/31 00:09:16;;;;;;;5.30;4.97;;;;;;;10.99;100.00;98955.94;5999311;23;20079;-79
2023/10/31 00:11:44;;;;;;;5.40;5.10;;;;;;;10.67;100.00;98920.03;5983318;23;20687;-77
2023/10/31 00:14:10;;;;;;;6.00;5.70;;;;;;;11.31;100.00;99007.63;5996355;23;20053;-77
2023/10/31 00:16:57;;;;;;;5.30;4.90;;;;;;;11.25;100.00;98984.50;6004056;23;20085;-74
2023/10/31 00:19:23;;;;;;;5.07;4.78;;;;;;;11.16;100.00;98988.69;5980602;23;20011;-74
2023/10/31 00:21:50;;;;;;;5.00;4.80;;;;;;;10.81;100.00;98925.97;6007014;23;20037;-73
2023/10/31 00:24:16;;;;;;;5.63;5.22;;;;;;;11.21;100.00;98980.44;6004206;23;20086;-73
2023/10/31 00:26:43;;;;;;;5.45;5.15;;;;;;;10.14;100.00;98808.03;5980680;23;20094;-74
2023/10/31 00:29:09;;;;;;;5.30;5.00;;;;;;;10.40;100.00;98857.53;6012183;23;20046;-74
2023/10/31 00:31:36;;;;;;;5.18;4.88;;;;;;;11.35;100.00;99025.59;5974492;23;20023;-74
2023/10/31 00:34:02;;;;;;;6.22;5.82;;;;;;;9.96;100.00;98799.84;5976300;23;20019;-75
2023/10/31 00:36:29;;;;;;;5.35;5.05;;;;;;;11.31;100.00;99026.81;6013986;23;20519;-73
2023/10/31 00:38:55;;;;;;;5.30;5.00;;;;;;;11.11;100.00;98996.94;5952999;23;20444;-74
2023/10/31 00:41:24;;;;;;;5.00;4.80;;;;;;;10.54;100.00;98921.97;5985118;23;20047;-74
2023/10/31 00:43:51;;;;;;;4.80;4.55;;;;;;;11.24;100.00;99037.94;6006967;23;20025;-72
2023/10/31 00:46:17;;;;;;;6.20;4.82;;;;;;;10.24;100.00;98881.50;5975932;23;20030;-74
2023/10/31 00:48:44;;;;;;;5.07;4.78;;;;;;;10.61;100.00;98952.03;6001621;23;20033;-74
2023/10/31 00:51:11;;;;;;;5.10;4.80;;;;;;;11.07;100.00;99008.66;6002299;23;20029;-75
2023/10/31 00:53:37;;;;;;;4.90;4.65;;;;;;;10.02;100.00;98844.84;6007738;23;20080;-75
2023/10/31 00:56:04;;;;;;;6.43;6.03;;;;;;;11.10;100.00;99008.38;5971279;23;21469;-73
2023/10/31 00:58:30;;;;;;;5.43;5.13;;;;;;;11.08;100.00;99015.56;6009904;23;20019;-76
2023/10/31 01:00:57;;;;;;;4.63;4.35;;;;;;;10.96;100.00;99001.66;6007259;23;20034;-74
2023/10/31 01:03:24;;;;;;;4.97;4.65;;;;;;;10.37;100.00;98921.53;5979123;23;20038;-74
2023/10/31 01:05:50;;;;;;;5.15;4.85;;;;;;;10.34;100.00;98937.53;6010363;23;20486;-73
2023/10/31 01:08:17;;;;;;;5.40;5.07;;;;;;;10.66;100.00;99019.84;6002518;23;20981;-74
2023/10/31 01:10:43;;;;;;;5.00;4.70;;;;;;;10.96;100.00;99053.31;6012372;23;20026;-73
2023/10/31 01:13:10;;;;;;;5.28;4.97;;;;;;;11.09;100.00;99056.63;6005314;23;20112;-73
2023/10/31 01:15:36;;;;;;;5.28;4.60;;;;;;;10.55;100.00;98973.50;5971580;23;20083;-74
2023/10/31 01:18:03;;;;;;;5.88;5.57;;;;;;;10.47;100.00;98952.28;6005280;23;20046;-73
2023/10/31 01:20:30;;;;;;;4.72;4.43;;;;;;;10.39;100.00;98929.31;5978086;23;20027;-74
2023/10/31 01:22:56;;;;;;;5.43;5.03;;;;;;;11.03;100.00;99036.13;5976959;23;20027;-76
2023/10/31 01:25:23;;;;;;;4.40;4.20;;;;;;;10.41;100.00;98926.56;6006296;23;20019;-73
2023/10/31 01:27:49;;;;;;;4.40;4.20;;;;;;;9.32;100.00;98763.00;5999307;23;20034;-73
2023/10/31 01:30:16;;;;;;;5.35;4.85;;;;;;;10.32;100.00;98894.88;5983213;23;20094;-73
2023/10/31 01:32:42;;;;;;;4.60;4.35;;;;;;;10.27;100.00;98891.75;6006525;23;20037;-74
2023/10/31 01:35:09;;;;;;;4.80;4.60;;;;;;;10.93;100.00;99009.78;5992310;23;20039;-75
2023/10/31 01:37:36;;;;;;;4.35;4.15;;;;;;;9.92;100.00;98842.97;6017011;23;20062;-76
2023/10/31 01:40:03;;;;;;;5.82;5.53;;;;;;;10.42;100.00;98917.72;6007168;23;20100;-75
2023/10/31 01:42:30;;;;;;;4.68;4.38;;;;;;;10.70;100.00;98969.63;5987400;23;20085;-74
2023/10/31 01:44:56;;;;;;;4.53;4.30;;;;;;;10.16;100.00;98881.28;5985163;23;20082;-75
2023/10/31 01:47:24;;;;;;;4.47;4.28;;;;;;;10.63;100.00;98962.41;6006893;23;20029;-75
2023/10/31 01:49:52;;;;;;;5.47;5.07;;;;;;;10.14;100.00;98885.81;6005082;23;20090;-75
2023/10/31 01:52:18;;;;;;;4.80;4.50;;;;;;;10.93;100.00;99012.41;6000523;23;20098;-74
2023/10/31 01:54:45;;;;;;;4.55;4.25;;;;;;;10.60;100.00;98963.44;5986737;23;21535;-74
2023/10/31 01:57:12;;;;;;;6.00;5.40;;;;;;;10.61;100.00;98959.88;6006420;23;20034;-76
2023/10/31 01:59:39;;;;;;;4.90;4.60;;;;;;;10.14;100.00;98877.94;5959601;23;20054;-75
2023/10/31 02:02:06;;;;;;;6.15;5.75;;;;;;;10.31;100.00;98926.47;5995280;23;20031;-76
2023/10/31 02:04:33;;;;;;;4.60;4.40;;;;;;;10.41;100.00;98953.63;6010761;23;20600;-75
2023/10/31 02:06:59;;;;;;;4.82;4.53;;;;;;;10.89;100.00;99037.22;6009861;23;20027;-75
2023/10/31 02:09:28;;;;;;;4.93;4.63;;;;;;;10.27;100.00;98941.56;6009966;23;20033;-75
2023/10/31 02:11:55;;;;;;;5.63;5.25;;;;;;;10.24;100.00;98939.16;6011509;23;20034;-74
2023/10/31 02:14:23;;;;;;;5.47;5.03;;;;;;;10.16;100.00;98967.78;6009007;23;20100;-74
2023/10/31 02:16:49;;;;;;;4.47;4.13;;;;;;;9.37;100.00;98811.44;6008298;23;20089;-75
2023/10/31 02:19:20;;;;;;;4.78;4.53;;;;;;;10.44;100.00;98992.69;6007319;23;20034;-76
2023/10/31 02:21:46;;;;;;;5.10;4.78;;;;;;;10.64;100.00;99034.88;5959532;23;20032;-73
2023/10/31 02:24:13;;;;;;;6.03;5.72;;;;;;;9.71;100.00;98881.34;6000567;23;20029;-73
2023/10/31 02:26:39;;;;;;;5.60;5.20;;;;;;;10.49;100.00;99010.69;5981845;23;20061;-72
2023/10/31 02:29:06;;;;;;;4.75;4.45;;;;;;;10.62;100.00;99024.50;6010325;23;20022;-74
2023/10/31 02:31:33;;;;;;;4.97;4.70;;;;;;;10.58;100.00;99010.81;6009148;23;20023;-74
2023/10/31 02:33:59;;;;;;;5.80;5.50;;;;;;;10.05;100.00;98918.00;6002669;23;20023;-73
2023/10/31 02:36:26;;;;;;;4.75;4.45;;;;;;;10.47;100.00;98991.63;6008233;23;20083;-73
2023/10/31 02:38:53;;;;;;;4.70;4.50;;;;;;;10.26;100.00;98954.78;6007918;23;20019;-75
2023/10/31 02:41:19;;;;;;;4.70;4.50;;;;;;;10.73;100.00;99035.00;6014024;23;20090;-73
2023/10/31 02:43:47;;;;;;;5.07;4.78;;;;;;;9.46;100.00;98828.25;6006840;23;20089;-74
2023/10/31 02:46:15;;;;;;;5.28;4.85;;;;;;;10.72;100.00;99024.59;6007578;23;20031;-75
2023/10/31 02:48:41;;;;;;;4.65;4.43;;;;;;;10.36;100.00;98969.72;6009185;23;20026;-76
2023/10/31 02:51:08;;;;;;;4.95;4.70;;;;;;;10.57;100.00;99014.38;6011799;23;20079;-74
2023/10/31 02:53:36;;;;;;;4.93;4.70;;;;;;;9.79;100.00;98913.81;6004479;23;20050;-73
2023/10/31 02:56:03;;;;;;;5.57;5.28;;;;;;;10.25;100.00;98984.59;5948426;23;20266;-74
2023/10/31 02:58:30;;;;;;;4.88;4.60;;;;;;;10.25;100.00;99006.38;6009114;23;20019;-75
2023/10/31 03:00:56;;;;;;;4.72;4.43;;;;;;;9.89;100.00;98968.16;5980701;23;20610;-73
2023/10/31 03:03:23;;;;;;;5.18;4.78;;;;;;;10.37;100.00;99057.09;6002239;23;20013;-74
2023/10/31 03:05:50;;;;;;;4.72;4.40;;;;;;;10.03;100.00;99016.88;6012082;23;20037;-73
2023/10/31 03:08:20;;;;;;;4.85;4.55;;;;;;;9.67;100.00;98966.34;5981400;23;20021;-73
2023/10/31 03:10:50;;;;;;;4.45;4.20;;;;;;;10.13;100.00;99028.31;6010805;23;20123;-73
2023/10/31 03:13:18;;;;;;;5.25;4.85;;;;;;;10.41;100.00;99078.66;5981592;23;20463;-73
2023/10/31 03:15:46;;;;;;;4.90;4.50;;;;;;;10.42;100.00;99083.75;5979975;23;20744;-73
2023/10/31 03:18:14;;;;;;;4.75;4.55;;;;;;;9.82;100.00;98991.34;6004713;23;20604;-74
2023/10/31 03:20:43;;;;;;;4.65;4.45;;;;;;;10.09;100.00;99058.34;6002705;23;20610;-73
2023/10/31 03:23:10;;;;;;;4.70;4.40;;;;;;;9.90;100.00;99007.34;5960453;23;20098;-74
2023/10/31 03:25:36;;;;;;;4.88;4.57;;;;;;;10.35;100.00;99079.97;5989868;23;20029;-74
2023/10/31 03:28:03;;;;;;;5.28;4.97;;;;;;;10.26;100.00;99068.34;6001007;23;20135;-73
2023/10/31 03:30:30;;;;;;;5.00;4.60;;;;;;;9.97;100.00;99015.56;5984534;23;20026;-74
2023/10/31 03:32:56;;;;;;;4.55;4.32;;;;;;;10.10;100.00;99039.03;6006961;23;20031;-73
2023/10/31 03:35:23;;;;;;;5.10;4.78;;;;;;;10.10;100.00;99034.63;6006672;23;20031;-75
2023/10/31 03:37:49;;;;;;;4.60;4.30;;;;;;;9.69;100.00;98961.81;6009724;23;20027;-77
2023/10/31 03:40:15;;;;;;;5.05;4.65;;;;;;;9.98;100.00;99020.69;5996658;23;20550;-77
2023/10/31 03:42:42;;;;;;;4.50;4.30;;;;;;;10.43;100.00;99088.06;6015998;23;20030;-76
2023/10/31 03:45:09;;;;;;;4.43;4.22;;;;;;;10.13;100.00;99042.25;6001274;23;20036;-77
2023/10/31 03:47:35;;;;;;;4.78;4.57;;;;;;;10.04;100.00;99015.91;6013489;23;20067;-76
2023/10/31 03:50:02;;;;;;;5.70;5.40;;;;;;;9.88;100.00;99014.50;6000975;23;20023;-78
2023/10/31 03:52:28;;;;;;;4.55;4.25;;;;;;;10.47;100.00;99093.91;6012134;23;20049;-77
2023/10/31 03:54:55;;;;;;;5.10;4.05;;;;;;;10.27;100.00;99090.19;6011130;23;20856;-76
2023/10/31 03:57:21;;;;;;;4.40;4.20;;;;;;;10.20;100.00;99066.19;6007288;23;20098;-78
2023/10/31 03:59:47;;;;;;;4.30;4.10;;;;;;;10.60;100.00;99123.47;6007073;23;20122;-75
2023/10/31 04:02:14;;;;;;;5.18;4.72;;;;;;;10.18;100.00;99055.84;5984653;23;20021;-76
2023/10/31 04:04:40;;;;;;;4.45;4.15;;;;;;;9.92;100.00;98994.97;5987534;23;20090;-78
2023/10/31 04:07:07;;;;;;;4.63;4.03;;;;;;;10.00;100.00;99007.44;6008637;23;20035;-78
2023/10/31 04:09:33;;;;;;;4.53;4.32;;;;;;;10.21;100.00;99048.72;5997645;23;20045;-76
2023/10/31 04:12:00;;;;;;;5.93;5.43;;;;;;;10.55;100.00;99078.41;5949430;23;20039;-77
2023/10/31 04:14:26;;;;;;;4.32;4.13;;;;;;;10.71;100.00;99094.63;6002320;23;20046;-76
2023/10/31 04:16:53;;;;;;;4.32;4.13;;;;;;;10.50;100.00;99063.06;5972391;23;20043;-75
2023/10/31 04:19:19;;;;;;;4.60;4.20;;;;;;;10.18;100.00;99005.19;6011321;23;20038;-80
2023/10/31 04:21:46;;;;;;;4.82;4.57;;;;;;;10.49;100.00;99055.28;5975297;23;20068;-76
2023/10/31 04:24:12;;;;;;;4.55;4.28;;;;;;;10.08;100.00;98980.66;6007043;23;20054;-78
2023/10/31 04:26:41;;;;;;;4.45;4.25;;;;;;;10.74;100.00;99104.03;6005305;23;20022;-76
2023/10/31 04:29:07;;;;;;;4.38;4.07;;;;;;;10.31;100.00;99039.19;5985085;23;20091;-77
2023/10/31 04:31:34;;;;;;;4.57;4.38;;;;;;;10.01;100.00;98995.19;6011215;23;20585;-79
2023/10/31 04:34:09;;;;;;;8.80;5.40;;;;;;;9.84;100.00;98984.19;5999571;23;20406;-76
2023/10/31 04:36:36;;;;;;;4.82;4.53;;;;;;;10.70;100.00;99124.41;5976503;23;20016;-73
2023/10/31 04:39:02;;;;;;;4.18;3.97;;;;;;;10.75;100.00;99132.78;5982012;23;20078;-73
2023/10/31 04:41:29;;;;;;;4.80;4.50;;;;;;;10.45;100.00;99090.59;6012340;23;20050;-75
2023/10/31 04:43:55;;;;;;;5.72;5.43;;;;;;;10.26;100.00;99068.34;6007449;23;20115;-74
2023/10/31 04:46:27;;;;;;;4.45;4.25;;;;;;;10.64;100.00;99119.66;6009840;23;20092;-73
2023/10/31 04:48:53;;;;;;;4.50;4.30;;;;;;;10.49;100.00;99099.88;5978586;23;20505;-74
2023/10/31 04:51:20;;;;;;;4.72;4.43;;;;;;;10.32;100.00;99074.94;6000652;23;20027;-73
2023/10/31 04:53:46;;;;;;;4.40;4.20;;;;;;;10.75;100.00;99143.28;6010689;23;20027;-74
2023/10/31 04:56:14;;;;;;;4.63;4.32;;;;;;;10.59;100.00;99127.06;6008077;23;20090;-73
2023/10/31 04:58:42;;;;;;;4.32;4.13;;;;;;;10.48;100.00;99129.66;6007859;23;20034;-73
2023/10/31 05:01:09;;;;;;;4.63;4.38;;;;;;;10.62;100.00;99128.59;5987821;23;20112;-74
2023/10/31 05:03:36;;;;;;;4.60;4.30;;;;;;;10.47;100.00;99086.88;6009925;23;20019;-75
2023/10/31 05:06:04;;;;;;;6.22;5.93;;;;;;;10.31;100.00;99066.25;6010765;23;20646;-74
2023/10/31 05:08:31;;;;;;;4.75;4.45;;;;;;;10.18;100.00;99029.63;6006773;23;22068;-73
2023/10/31 05:10:59;;;;;;;4.97;4.78;;;;;;;10.60;100.00;99084.13;6013837;23;20096;-74
2023/10/31 05:13:28;;;;;;;4.80;4.50;;;;;;;10.76;100.00;99091.63;5985941;23;20019;-75
2023/10/31 05:15:54;;;;;;;7.20;4.93;;;;;;;10.74;100.00;99102.25;5986578;23;20026;-73
2023/10/31 05:18:21;;;;;;;4.70;4.50;;;;;;;10.76;100.00;99102.13;5987473;23;20035;-74
2023/10/31 05:20:47;;;;;;;4.90;4.55;;;;;;;10.41;100.00;99040.16;6006427;23;20006;-75
2023/10/31 05:23:14;;;;;;;4.35;4.00;;;;;;;10.55;100.00;99062.69;6012545;23;20514;-74
2023/10/31 05:25:40;;;;;;;4.55;4.32;;;;;;;9.59;100.00;98907.50;6011996;23;20031;-74
2023/10/31 05:28:07;;;;;;;5.95;5.65;;;;;;;9.68;100.00;98950.50;5978607;23;20030;-74
2023/10/31 05:30:33;;;;;;;5.05;4.70;;;;;;;10.22;100.00;99034.63;6004017;23;20034;-74
2023/10/31 05:33:00;;;;;;;4.65;4.40;;;;;;;10.51;100.00;99074.38;6009795;23;20551;-74
2023/10/31 05:35:26;;;;;;;7.82;4.85;;;;;;;10.07;100.00;99005.22;6015231;23;20038;-74
2023/10/31 05:37:53;;;;;;;4.70;4.43;;;;;;;10.55;100.00;99083.66;6003863;23;20709;-73
2023/10/31 05:40:22;;;;;;;4.45;4.25;;;;;;;9.30;100.00;98885.34;6006912;23;20082;-75
2023/10/31 05:42:48;;;;;;;4.53;4.32;;;;;;;10.28;100.00;99042.00;6013268;23;20420;-75
2023/10/31 05:45:15;;;;;;;5.03;4.72;;;;;;;10.35;100.00;99046.69;6011489;23;20091;-74
2023/10/31 05:47:41;;;;;;;4.70;4.50;;;;;;;10.72;100.00;99106.81;6011139;23;20091;-74
2023/10/31 05:50:08;;;;;;;8.15;5.68;;;;;;;9.98;100.00;98991.00;6006388;23;20093;-75
2023/10/31 05:52:35;;;;;;;5.03;4.63;;;;;;;10.48;100.00;99070.16;6011251;23;20043;-74
2023/10/31 05:55:01;;;;;;;4.30;4.10;;;;;;;10.62;100.00;99107.63;6012001;23;20023;-74
2023/10/31 05:57:27;;;;;;;5.07;4.78;;;;;;;10.20;100.00;99037.38;6007809;23;20038;-75
2023/10/31 05:59:54;;;;;;;5.20;4.90;;;;;;;10.26;100.00;99051.78;6009700;23;20019;-74
2023/10/31 06:02:20;;;;;;;4.70;4.50;;;;;;;10.49;100.00;99102.50;5980465;23;20020;-79
2023/10/31 06:04:47;;;;;;;4.47;4.28;;;;;;;10.09;100.00;99034.75;6010581;23;20158;-78
2023/10/31 06:07:13;;;;;;;4.38;4.18;;;;;;;10.19;100.00;99057.50;6017021;23;20047;-77
2023/10/31 06:09:42;;;;;;;4.75;4.50;;;;;;;10.38;100.00;99088.44;5995845;23;20023;-79
2023/10/31 06:12:11;;;;;;;5.82;5.53;;;;;;;10.09;100.00;99046.06;5984813;23;20032;-77
2023/10/31 06:14:37;;;;;;;4.30;4.10;;;;;;;10.73;100.00;99149.59;6003046;23;20012;-79
2023/10/31 06:17:04;;;;;;;7.80;5.55;;;;;;;10.55;100.00;99136.94;5953655;23;20102;-77
2023/10/31 06:19:35;;;;;;;6.03;5.65;;;;;;;10.40;100.00;99143.38;5982179;23;20091;-78
2023/10/31 06:22:01;;;;;;;5.78;5.47;;;;;;;10.34;100.00;99123.72;5975416;23;20502;-76
2023/10/31 06:24:28;;;;;;;4.50;4.30;;;;;;;10.67;100.00;99186.81;6007321;23;20020;-79
2023/10/31 06:26:54;;;;;;;5.15;4.88;;;;;;;10.68;100.00;99199.78;5974596;23;20094;-78
2023/10/31 06:29:21;;;;;;;5.13;4.82;;;;;;;9.92;100.00;99097.16;6009963;23;20098;-77
2023/10/31 06:32:07;;;;;;;6.10;5.80;;;;;;;10.52;100.00;99200.16;5974338;23;20039;-77
2023/10/31 06:34:33;;;;;;;5.45;5.13;;;;;;;10.61;100.00;99216.97;5977086;23;20574;-75
2023/10/31 06:37:00;;;;;;;4.82;4.53;;;;;;;10.63;100.00;99220.31;6008611;23;20031;-78
2023/10/31 06:39:26;;;;;;;5.63;5.00;;;;;;;10.36;100.00;99182.13;6008048;23;20512;-77
2023/10/31 06:41:56;;;;;;;5.63;5.22;;;;;;;10.65;100.00;99231.53;5984408;23;20031;-75
2023/10/31 06:44:22;;;;;;;4.60;4.32;;;;;;;10.06;100.00;99148.50;5980952;23;20027;-75
2023/10/31 06:46:49;;;;;;;6.90;6.50;;;;;;;9.97;100.00;99123.84;6001885;23;20439;-77
2023/10/31 06:49:16;;;;;;;4.97;4.68;;;;;;;10.61;100.00;99235.34;6004845;23;20054;-76
2023/10/31 06:51:42;;;;;;;5.68;5.32;;;;;;;10.63;100.00;99240.47;6009909;23;20023;-75
2023/10/31 06:54:09;;;;;;;5.68;5.38;;;;;;;10.14;100.00;99174.16;6003932;23;20032;-77
2023/10/31 06:56:35;;;;;;;4.90;4.60;;;;;;;10.27;100.00;99227.34;6013763;23;20095;-77
2023/10/31 06:59:02;;;;;;;5.78;5.38;;;;;;;9.85;100.00;99194.66;5989583;23;20059;-76
2023/10/31 07:01:29;;;;;;;5.55;5.20;;;;;;;9.90;100.00;99218.72;6012587;23;20033;-76
2023/10/31 07:03:55;;;;;;;6.05;5.65;;;;;;;10.38;100.00;99318.34;6000797;23;20109;-76
2023/10/31 07:06:22;;;;;;;5.20;4.90;;;;;;;10.54;100.00;99357.41;6006863;23;20043;-76
2023/10/31 07:08:48;;;;;;;5.20;4.88;;;;;;;10.49;100.00;99363.00;6006273;23;20111;-76
2023/10/31 07:11:15;;;;;;;6.18;5.68;;;;;;;10.35;100.00;99358.75;5983118;23;20019;-76
2023/10/31 07:13:41;;;;;;;5.78;5.32;;;;;;;10.00;100.00;99298.34;6009244;23;20014;-76
2023/10/31 07:16:08;;;;;;;6.65;6.13;;;;;;;10.12;100.00;99346.44;6004456;23;20038;-76
2023/10/31 07:18:34;;;;;;;5.30;5.00;;;;;;;10.30;100.00;99367.91;6008566;23;20018;-76
2023/10/31 07:21:01;;;;;;;5.43;5.03;;;;;;;10.46;100.00;99405.19;6009390;23;20102;-77
2023/10/31 07:23:27;;;;;;;5.47;5.18;;;;;;;10.21;100.00;99356.28;6010267;23;20038;-77
2023/10/31 07:25:53;;;;;;;5.63;5.22;;;;;;;10.54;100.00;99404.63;6006870;23;20603;-76
2023/10/31 07:28:20;;;;;;;5.32;4.88;;;;;;;9.30;100.00;99204.69;6004526;23;20018;-78
2023/10/31 07:30:46;;;;;;;5.47;5.18;;;;;;;10.16;100.00;99355.75;6007282;23;20055;-78
2023/10/31 07:33:13;;;;;;;5.55;5.15;;;;;;;10.61;100.00;99387.50;6011675;23;20732;-78
2023/10/31 07:35:39;;;;;;;5.63;5.22;;;;;;;10.14;100.00;99292.09;6005984;23;20042;-76
2023/10/31 07:38:06;;;;;;;6.30;5.90;;;;;;;10.09;100.00;99289.00;6003666;23;20027;-78
2023/10/31 07:40:32;;;;;;;5.18;4.88;;;;;;;10.08;100.00;99259.34;6010972;23;20027;-79
2023/10/31 07:42:59;;;;;;;5.55;5.15;;;;;;;10.78;100.00;99366.09;6005094;23;20031;-76
2023/10/31 07:45:25;;;;;;;5.68;5.28;;;;;;;10.46;100.00;99302.88;6004560;23;20074;-77
2023/10/31 07:47:52;;;;;;;5.47;5.07;;;;;;;10.49;100.00;99314.97;6005456;23;20428;-76
2023/10/31 07:50:19;;;;;;;5.38;5.07;;;;;;;10.13;100.00;99238.84;5971421;23;20027;-77
2023/10/31 07:52:47;;;;;;;5.15;4.85;;;;;;;10.20;100.00;99231.38;5974442;23;20087;-77
2023/10/31 07:55:14;;;;;;;5.10;4.80;;;;;;;10.96;100.00;99347.28;6013254;23;20078;-79
2023/10/31 07:57:41;;;;;;;4.70;4.50;;;;;;;11.06;100.00;99345.63;6011624;23;20601;-77
2023/10/31 08:00:11;;;;;;;6.60;6.20;;;;;;;10.96;100.00;99302.66;6010150;23;20041;-79
2023/10/31 08:02:37;;;;;;;5.70;5.30;;;;;;;11.15;100.00;99317.84;6000891;23;20039;-77
2023/10/31 08:05:04;;;;;;;5.70;5.40;;;;;;;9.96;100.00;99116.06;5951179;23;20042;-77
2023/10/31 08:07:31;;;;;;;5.50;5.20;;;;;;;10.92;100.00;99246.94;6013718;23;20031;-77
2023/10/31 08:09:57;;;;;;;6.32;5.90;;;;;;;10.80;100.00;99215.56;5960670;23;20025;-77
2023/10/31 08:12:24;;;;;;;5.32;4.82;;;;;;;10.37;100.00;99148.84;6006644;23;20642;-76
2023/10/31 08:14:50;;;;;;;5.07;4.68;;;;;;;10.02;100.00;99086.78;6005838;23;20022;-76
2023/10/31 08:17:17;;;;;;;5.03;4.65;;;;;;;10.89;100.00;99217.50;6013980;23;20034;-77
2023/10/31 08:19:43;;;;;;;5.80;5.40;;;;;;;10.93;100.00;99211.88;5976071;23;20014;-77
2023/10/31 08:22:10;;;;;;;6.05;5.63;;;;;;;11.01;100.00;99208.66;6002374;23;20824;-76
2023/10/31 08:24:36;;;;;;;6.47;5.30;;;;;;;10.86;100.00;99187.03;5983083;23;20078;-77
2023/10/31 08:27:04;;;;;;;5.55;5.15;;;;;;;10.66;100.00;99188.59;5980172;23;20036;-77
2023/10/31 08:29:31;;;;;;;5.68;5.30;;;;;;;10.04;100.00;99092.75;6007873;23;20034;-78
2023/10/31 08:31:57;;;;;;;6.88;6.47;;;;;;;11.05;100.00;99259.13;6001377;23;20029;-77
2023/10/31 08:34:24;;;;;;;5.88;5.47;;;;;;;10.54;100.00;99185.13;6010928;23;20260;-76
2023/10/31 08:36:52;;;;;;;4.65;4.45;;;;;;;10.62;100.00;99188.94;6009795;23;20038;-78
2023/10/31 08:39:18;;;;;;;4.90;4.60;;;;;;;11.32;100.00;99256.97;5968813;23;20042;-77
2023/10/31 08:41:56;;;;;;;5.10;4.80;;;;;;;11.52;100.00;99273.78;5972154;23;20704;-76
2023/10/31 08:44:22;;;;;;;4.43;4.22;;;;;;;10.40;100.00;99064.69;5996343;23;20575;-77
2023/10/31 08:46:49;;;;;;;5.15;4.88;;;;;;;11.44;100.00;99207.88;6008418;23;20020;-78
2023/10/31 08:49:16;;;;;;;5.43;4.95;;;;;;;11.56;100.00;99212.16;5976340;23;20024;-76
2023/10/31 08:51:44;;;;;;;4.75;4.50;;;;;;;11.33;100.00;99179.03;6010012;23;20033;-76
2023/10/31 08:54:11;;;;;;;5.32;5.03;;;;;;;11.18;100.00;99170.56;5982474;23;20106;-78
2023/10/31 08:56:37;;;;;;;5.00;4.60;;;;;;;11.11;100.00;99153.66;6005260;23;20035;-78
2023/10/31 08:59:04;;;;;;;5.57;5.22;;;;;;;11.80;100.00;99279.47;6008641;23;20078;-77
2023/10/31 09:01:30;;;;;;;5.60;5.18;;;;;;;11.74;100.00;99267.66;5993069;23;20046;-78
2023/10/31 09:04:00;;;;;;;5.82;5.40;;;;;;;11.50;100.00;99196.88;6036198;23;20220;-77
2023/10/31 09:06:27;;;;;;;5.35;4.95;;;;;;;10.68;100.00;99058.13;6018130;23;20029;-76
2023/10/31 09:08:53;;;;;;;5.55;5.10;;;;;;;11.38;100.00;99190.84;6004837;23;20400;-77
2023/10/31 09:11:20;;;;;;;4.82;4.53;;;;;;;11.35;100.00;99170.06;6032835;18;20038;-77
2023/10/31 09:13:46;;;;;;;5.05;4.75;;;;;;;11.45;100.00;99195.59;6017426;23;20114;-76
2023/10/31 09:16:13;;;;;;;5.15;4.88;;;;;;;11.51;100.00;99174.09;6049205;23;20030;-76
2023/10/31 09:18:41;;;;;;;5.40;5.00;;;;;;;11.23;100.00;99128.22;6029524;23;20047;-76
2023/10/31 09:21:07;;;;;;;4.82;4.53;;;;;;;11.94;100.00;99196.91;6036758;23;20035;-78
2023/10/31 09:23:34;;;;;;;4.65;4.45;;;;;;;11.94;100.00;99155.66;6056874;23;20298;-76
2023/10/31 09:26:00;;;;;;;5.57;5.28;;;;;;;12.40;100.00;99190.47;6027822;23;20026;-78
2023/10/31 09:28:27;;;;;;;4.65;4.43;;;;;;;12.13;100.00;99120.81;6027932;23;20154;-77
2023/10/31 09:30:53;;;;;;;4.40;4.20;;;;;;;12.78;100.00;99203.00;6029052;23;20117;-76
2023/10/31 09:33:20;;;;;;;5.10;4.80;;;;;;;12.36;100.00;99120.66;6043349;23;20025;-77
2023/10/31 09:35:46;;;;;;;5.45;5.15;;;;;;;12.97;100.00;99175.94;6037128;23;20023;-77
2023/10/31 09:38:15;;;;;;;4.72;4.40;;;;;;;12.90;100.00;99150.28;6033390;23;20028;-76
2023/10/31 09:40:41;;;;;;;4.90;4.70;;;;;;;12.81;100.00;99161.59;6009975;23;20022;-77
2023/10/31 09:43:08;;;;;;;4.50;4.30;;;;;;;11.49;100.00;98969.31;6024329;23;20018;-78
2023/10/31 09:45:35;;;;;;;5.45;5.05;;;;;;;12.74;100.00;99164.75;6051526;23;20454;-77
2023/10/31 09:48:02;;;;;;;5.80;5.32;;;;;;;12.54;100.00;99113.81;6022708;23;20330;-77
2023/10/31 09:50:30;;;;;;;4.80;4.60;;;;;;;12.87;100.00;99176.84;6066155;23;20059;-77
2023/10/31 09:52:57;;;;;;;4.80;4.60;;;;;;;12.73;100.00;99163.09;6011682;23;20570;-77
2023/10/31 09:55:24;;;;;;;4.75;4.55;;;;;;;12.40;100.00;99101.00;6031385;23;20143;-76
2023/10/31 09:57:50;;;;;;;5.15;4.85;;;;;;;13.27;100.00;99199.72;6058105;23;20093;-76
2023/10/31 10:00:18;;;;;;;5.95;5.25;;;;;;;13.06;100.00;99157.66;6037169;23;20503;-79
2023/10/31 10:02:44;;;;;;;4.85;4.60;;;;;;;13.11;100.00;99129.13;6040737;23;20027;-79
2023/10/31 10:05:16;;;;;;;5.13;4.75;;;;;;;13.13;100.00;99157.00;6069176;23;20100;-76
2023/10/31 10:07:43;;;;;;;4.90;4.70;;;;;;;13.21;100.00;99211.66;6048008;23;20032;-75
2023/10/31 10:10:13;;;;;;;5.93;5.03;;;;;;;12.53;100.00;99095.56;6074337;23;20063;-76
2023/10/31 10:12:43;;;;;;;5.13;4.82;;;;;;;12.95;100.00;99206.00;6041998;23;20346;-76
2023/10/31 10:15:11;;;;;;;6.05;4.72;;;;;;;12.75;100.00;99187.47;6073642;23;20030;-76
2023/10/31 10:17:39;;;;;;;5.22;4.93;;;;;;;12.36;100.00;99139.91;6038188;23;20090;-77
2023/10/31 10:20:08;;;;;;;5.57;5.28;;;;;;;12.85;100.00;99245.47;6038013;23;20033;-76
2023/10/31 10:22:42;;;;;;;5.32;4.88;;;;;;;12.87;100.00;99247.94;6068043;23;20599;-76
2023/10/31 10:25:21;;;;;;;5.43;4.70;;;;;;;12.32;100.00;99177.94;6032452;23;20082;-75
2023/10/31 10:27:47;;;;;;;4.80;4.60;;;;;;;12.71;100.00;99236.09;6052529;23;20029;-78
2023/10/31 10:30:15;;;;;;;4.80;4.60;;;;;;;12.90;100.00;99258.22;6003166;23;20984;-76
2023/10/31 10:32:41;;;;;;;6.53;4.88;;;;;;;12.77;100.00;99177.66;6051695;23;20025;-76
2023/10/31 10:35:09;;;;;;;5.30;4.85;;;;;;;12.72;100.00;99147.44;6030701;23;20061;-77
2023/10/31 10:37:39;;;;;;;5.10;4.80;;;;;;;13.17;100.00;99213.72;6032707;23;20097;-76
2023/10/31 10:40:11;;;;;;;5.63;5.22;;;;;;;13.08;100.00;99172.38;6034307;23;20038;-76
2023/10/31 10:42:47;;;;;;;4.80;4.60;;;;;;;12.84;100.00;99092.88;6060203;23;20046;-76
2023/10/31 10:45:15;;;;;;;4.90;4.60;;;;;;;12.80;100.00;99086.22;6029532;23;20363;-76
2023/10/31 10:47:46;;;;;;;5.00;4.75;;;;;;;13.41;100.00;99188.00;6062568;23;20030;-76
2023/10/31 10:50:13;;;;;;;5.40;5.10;;;;;;;12.93;100.00;99103.44;6032221;23;20176;-78
2023/10/31 10:53:10;;;;;;;4.80;4.60;;;;;;;13.68;100.00;99219.00;6062467;23;20052;-78
2023/10/31 10:55:44;;;;;;;4.82;4.60;;;;;;;13.71;98.04;99126.44;6045741;23;20062;-79
2023/10/31 10:58:41;;;;;;;5.43;4.90;;;;;;;13.76;96.75;99105.78;6024187;23;20088;-78
2023/10/31 11:01:08;;;;;;;5.95;4.93;;;;;;;14.07;96.29;99140.75;6026519;23;20122;-78
2023/10/31 11:03:35;;;;;;;5.00;4.70;;;;;;;14.20;96.28;99164.19;6074215;23;20091;-75
2023/10/31 11:06:03;;;;;;;5.82;5.43;;;;;;;13.76;93.19;99018.78;6022640;23;20635;-76
2023/10/31 11:08:32;;;;;;;4.78;4.57;;;;;;;12.92;91.95;98856.91;6038239;23;20371;-75
2023/10/31 11:11:01;;;;;;;5.00;4.70;;;;;;;13.83;91.52;98998.78;6032742;23;20054;-76
2023/10/31 11:13:27;;;;;;;5.28;4.97;;;;;;;13.55;91.80;98990.78;6039424;23;20393;-76
2023/10/31 11:15:59;;;;;;;5.05;4.80;;;;;;;13.75;92.99;99075.09;6029832;23;20296;-75
2023/10/31 11:18:27;;;;;;;5.15;4.85;;;;;;;13.65;94.13;99098.88;6036446;23;20029;-76
2023/10/31 11:20:54;;;;;;;4.93;4.70;;;;;;;13.52;93.76;99061.41;6028458;23;20087;-76
2023/10/31 11:23:21;;;;;;;4.95;4.75;;;;;;;13.84;93.01;99107.72;6054786;23;20862;-76
2023/10/31 11:25:52;;;;;;;4.90;4.70;;;;;;;13.76;93.50;99118.97;6028162;23;20101;-76
2023/10/31 11:28:21;;;;;;;4.85;4.60;;;;;;;13.57;94.08;99107.47;6056305;23;20634;-76